createdAt,value
2017-05-22T00:00:50.551Z,47.44
2017-05-22T00:01:51.963Z,47.44
2017-05-22T00:02:53.388Z,47.53
2017-05-22T00:03:54.797Z,47.34
2017-05-22T00:04:56.213Z,47.44
2017-05-22T00:05:57.630Z,47.53
2017-05-22T00:06:59.045Z,47.44
2017-05-22T00:08:00.457Z,47.53
2017-05-22T00:09:01.875Z,47.15
2017-05-22T00:10:03.290Z,47.44
2017-05-22T00:11:04.707Z,47.34
2017-05-22T00:12:06.126Z,47.44
2017-05-22T00:13:07.542Z,47.34
2017-05-22T00:14:08.961Z,47.34
2017-05-22T00:15:10.374Z,47.24
2017-05-22T00:16:11.790Z,47.44
2017-05-22T00:17:13.209Z,47.34
2017-05-22T00:18:14.622Z,47.53
2017-05-22T00:19:16.036Z,47.15
2017-05-22T00:20:17.453Z,46.67
2017-05-22T00:21:18.870Z,46.67
2017-05-22T00:22:20.284Z,46.77
2017-05-22T00:23:21.702Z,46.67
2017-05-22T00:24:23.121Z,46.95
2017-05-22T00:25:24.534Z,46.95
2017-05-22T00:26:25.954Z,46.86
2017-05-22T00:27:27.377Z,46.67
2017-05-22T00:28:28.793Z,46.77
2017-05-22T00:29:30.207Z,46.86
2017-05-22T00:30:31.627Z,46.47
2017-05-22T00:31:33.043Z,46.67
2017-05-22T00:32:34.461Z,46.67
2017-05-22T00:33:35.880Z,46.67
2017-05-22T00:34:37.297Z,46.86
2017-05-22T00:35:38.711Z,46.57
2017-05-22T00:36:40.124Z,46.67
2017-05-22T00:37:41.541Z,46.67
2017-05-22T00:38:42.958Z,46.57
2017-05-22T00:39:44.374Z,46.57
2017-05-22T00:40:45.794Z,46.57
2017-05-22T00:41:47.213Z,46.28
2017-05-22T00:42:48.626Z,46.67
2017-05-22T00:43:50.041Z,46.64
2017-05-22T00:44:51.457Z,46.57
2017-05-22T00:45:52.872Z,46.67
2017-05-22T00:46:54.290Z,46.67
2017-05-22T00:47:55.707Z,46.67
2017-05-22T00:48:57.125Z,46.67
2017-05-22T00:49:58.538Z,46.67
2017-05-22T00:50:59.952Z,46.77
2017-05-22T00:52:01.369Z,46.77
2017-05-22T00:53:02.783Z,46.64
2017-05-22T00:54:04.200Z,46.67
2017-05-22T00:55:05.618Z,46.47
2017-05-22T00:56:07.044Z,46.64
2017-05-22T00:57:08.456Z,46.47
2017-05-22T00:58:09.869Z,46.57
2017-05-22T00:59:11.286Z,46.28
2017-05-22T01:00:12.704Z,46.47
2017-05-22T01:01:14.125Z,46.36
2017-05-22T01:02:15.542Z,46.57
2017-05-22T01:03:16.956Z,46.57
2017-05-22T01:04:18.373Z,46.55
2017-05-22T01:05:19.791Z,46.36
2017-05-22T01:06:21.206Z,46.47
2017-05-22T01:07:22.622Z,46.06
2017-05-22T01:08:24.038Z,46.09
2017-05-22T01:09:25.454Z,46.64
2017-05-22T01:10:26.871Z,46.09
2017-05-22T01:11:28.284Z,46.06
2017-05-22T01:12:29.701Z,46.55
2017-05-22T01:13:31.113Z,46.16
2017-05-22T01:14:32.527Z,46.26
2017-05-22T01:15:33.944Z,46.28
2017-05-22T01:16:35.361Z,46.57
2017-05-22T01:17:36.778Z,46.09
2017-05-22T01:18:38.191Z,46.16
2017-05-22T01:19:39.609Z,46.09
2017-05-22T01:20:41.025Z,45.87
2017-05-22T01:21:42.442Z,45.99
2017-05-22T01:22:43.861Z,46.16
2017-05-22T01:23:45.279Z,46.06
2017-05-22T01:24:46.698Z,45.87
2017-05-22T01:25:48.111Z,46.06
2017-05-22T01:26:49.522Z,46.16
2017-05-22T01:27:50.937Z,46.45
2017-05-22T01:28:52.355Z,46.47
2017-05-22T01:29:53.773Z,46.28
2017-05-22T01:30:55.191Z,46.57
2017-05-22T01:31:56.617Z,46.36
2017-05-22T01:32:58.025Z,46.47
2017-05-22T01:33:59.436Z,46.16
2017-05-22T01:35:00.851Z,46.36
2017-05-22T01:36:02.265Z,46.57
2017-05-22T01:37:03.686Z,46.47
2017-05-22T01:38:05.103Z,46.36
2017-05-22T01:39:06.521Z,46.45
2017-05-22T01:40:07.934Z,46.38
2017-05-22T01:41:09.348Z,46.38
2017-05-22T01:42:10.764Z,46.26
2017-05-22T01:43:12.178Z,46.45
2017-05-22T01:44:13.599Z,46.55
2017-05-22T01:45:15.017Z,46.55
2017-05-22T01:46:16.431Z,46.16
2017-05-22T01:47:17.846Z,46.57
2017-05-22T01:48:19.261Z,46.36
2017-05-22T01:49:20.676Z,46.47
2017-05-22T01:50:22.091Z,46.28
2017-05-22T01:51:23.507Z,46.45
2017-05-22T01:52:24.923Z,46.26
2017-05-22T01:53:26.342Z,45.87
2017-05-22T01:54:27.754Z,46.36
2017-05-22T01:55:29.169Z,46.16
2017-05-22T01:56:30.584Z,46.16
2017-05-22T01:57:32.000Z,46.45
2017-05-22T01:58:33.415Z,46.55
2017-05-22T01:59:34.832Z,45.87
2017-05-22T02:00:36.251Z,46.45
2017-05-22T02:01:37.665Z,46.55
2017-05-22T02:02:39.080Z,46.45
2017-05-22T02:03:40.497Z,45.97
2017-05-22T02:04:41.911Z,45.97
2017-05-22T02:05:43.324Z,46.06
2017-05-22T02:06:44.744Z,46.06
2017-05-22T02:07:46.161Z,45.97
2017-05-22T02:08:47.576Z,46.06
2017-05-22T02:09:48.991Z,46.16
2017-05-22T02:10:50.405Z,46.06
2017-05-22T02:11:51.823Z,46.36
2017-05-22T02:12:53.242Z,46.36
2017-05-22T02:13:54.659Z,46.36
2017-05-22T02:14:56.076Z,46.26
2017-05-22T02:15:57.489Z,46.55
2017-05-22T02:16:58.906Z,46.45
2017-05-22T02:18:00.322Z,46.36
2017-05-22T02:19:01.737Z,46.26
2017-05-22T02:20:03.156Z,46.45
2017-05-22T02:21:04.579Z,46.55
2017-05-22T02:22:06.005Z,46.36
2017-05-22T02:23:07.421Z,46.36
2017-05-22T02:24:08.839Z,46.45
2017-05-22T02:25:10.263Z,46.45
2017-05-22T02:26:11.681Z,46.26
2017-05-22T02:27:13.104Z,46.16
2017-05-22T02:28:14.514Z,46.36
2017-05-22T02:29:15.930Z,45.97
2017-05-22T02:30:17.344Z,46.06
2017-05-22T02:31:18.759Z,45.49
2017-05-22T02:32:20.173Z,45.78
2017-05-22T02:33:21.589Z,45.59
2017-05-22T02:34:23.009Z,46.26
2017-05-22T02:35:24.422Z,45.78
2017-05-22T02:36:25.843Z,45.97
2017-05-22T02:37:27.252Z,45.97
2017-05-22T02:38:28.668Z,46.36
2017-05-22T02:39:30.083Z,46.16
2017-05-22T02:40:31.499Z,46.06
2017-05-22T02:41:32.917Z,45.78
2017-05-22T02:42:34.336Z,45.97
2017-05-22T02:43:35.753Z,45.78
2017-05-22T02:44:37.166Z,45.78
2017-05-22T02:45:38.582Z,46.26
2017-05-22T02:46:39.998Z,45.68
2017-05-22T02:47:41.417Z,46.16
2017-05-22T02:48:42.832Z,45.78
2017-05-22T02:49:44.253Z,45.97
2017-05-22T02:50:45.670Z,45.59
2017-05-22T02:51:47.083Z,45.68
2017-05-22T02:52:48.495Z,45.59
2017-05-22T02:53:49.912Z,45.78
2017-05-22T02:54:51.326Z,45.87
2017-05-22T02:55:52.742Z,45.59
2017-05-22T02:56:54.156Z,45.49
2017-05-22T02:57:55.575Z,45.68
2017-05-22T02:58:56.991Z,45.68
2017-05-22T02:59:58.406Z,45.59
2017-05-22T03:00:59.825Z,45.68
2017-05-22T03:02:01.246Z,45.59
2017-05-22T03:03:02.664Z,46.06
2017-05-22T03:04:04.080Z,45.59
2017-05-22T03:05:05.499Z,45.78
2017-05-22T03:06:06.912Z,45.68
2017-05-22T03:07:08.328Z,45.68
2017-05-22T03:08:09.745Z,45.59
2017-05-22T03:09:11.157Z,45.78
2017-05-22T03:10:12.571Z,45.78
2017-05-22T03:11:13.988Z,46.06
2017-05-22T03:12:15.404Z,45.87
2017-05-22T03:13:16.818Z,46.06
2017-05-22T03:14:18.234Z,45.68
2017-05-22T03:15:19.649Z,45.87
2017-05-22T03:16:21.063Z,45.68
2017-05-22T03:17:22.480Z,45.68
2017-05-22T03:18:23.901Z,45.68
2017-05-22T03:19:25.316Z,45.68
2017-05-22T03:20:26.729Z,45.68
2017-05-22T03:21:28.143Z,45.68
2017-05-22T03:22:29.560Z,45.78
2017-05-22T03:23:30.976Z,45.87
2017-05-22T03:24:32.394Z,45.59
2017-05-22T03:25:33.809Z,45.39
2017-05-22T03:26:35.230Z,45.39
2017-05-22T03:27:36.643Z,45.39
2017-05-22T03:28:38.058Z,45.78
2017-05-22T03:29:39.478Z,45.59
2017-05-22T03:30:40.894Z,45.49
2017-05-22T03:31:42.314Z,45.78
2017-05-22T03:32:43.733Z,45.78
2017-05-22T03:33:45.151Z,45.78
2017-05-22T03:34:46.565Z,45.78
2017-05-22T03:35:47.982Z,45.59
2017-05-22T03:36:49.399Z,45.59
2017-05-22T03:37:50.816Z,45.68
2017-05-22T03:38:52.236Z,45.78
2017-05-22T03:39:53.652Z,45.49
2017-05-22T03:40:55.072Z,45.29
2017-05-22T03:41:56.489Z,45.78
2017-05-22T03:42:57.903Z,45.78
2017-05-22T03:43:59.319Z,45.59
2017-05-22T03:45:00.733Z,45.59
2017-05-22T03:46:02.151Z,45.78
2017-05-22T03:47:03.568Z,45.49
2017-05-22T03:48:04.985Z,45.29
2017-05-22T03:49:06.400Z,45.68
2017-05-22T03:50:07.813Z,45.49
2017-05-22T03:51:09.230Z,45.49
2017-05-22T03:52:10.647Z,45.29
2017-05-22T03:53:12.060Z,45.49
2017-05-22T03:54:13.477Z,45.29
2017-05-22T03:55:14.897Z,45.39
2017-05-22T03:56:16.313Z,45.29
2017-05-22T03:57:17.731Z,45.29
2017-05-22T03:58:19.151Z,45.39
2017-05-22T03:59:20.565Z,45.39
2017-05-22T04:00:21.984Z,45.29
2017-05-22T04:01:23.405Z,45.39
2017-05-22T04:02:24.832Z,45.29
2017-05-22T04:03:26.251Z,45.29
2017-05-22T04:04:27.668Z,45.29
2017-05-22T04:05:29.087Z,45.29
2017-05-22T04:06:30.508Z,45.20
2017-05-22T04:07:31.928Z,45.29
2017-05-22T04:08:33.347Z,45.49
2017-05-22T04:09:34.814Z,45.29
2017-05-22T04:10:36.240Z,45.29
2017-05-22T04:11:37.665Z,45.29
2017-05-22T04:12:39.083Z,45.20
2017-05-22T04:13:40.503Z,45.10
2017-05-22T04:14:41.925Z,45.29
2017-05-22T04:15:43.345Z,45.01
2017-05-22T04:16:44.764Z,45.59
2017-05-22T04:17:46.182Z,45.29
2017-05-22T04:18:47.602Z,44.91
2017-05-22T04:19:49.021Z,45.29
2017-05-22T04:20:50.442Z,45.39
2017-05-22T04:21:51.866Z,45.29
2017-05-22T04:22:53.289Z,45.20
2017-05-22T04:23:54.709Z,45.39
2017-05-22T04:24:56.127Z,45.49
2017-05-22T04:25:57.549Z,45.68
2017-05-22T04:26:58.963Z,45.78
2017-05-22T04:28:00.393Z,45.29
2017-05-22T04:29:01.815Z,45.29
2017-05-22T04:30:03.232Z,45.39
2017-05-22T04:31:04.652Z,45.78
2017-05-22T04:32:06.073Z,45.39
2017-05-22T04:33:07.489Z,45.39
2017-05-22T04:34:08.937Z,45.01
2017-05-22T04:35:10.354Z,45.01
2017-05-22T04:36:11.774Z,45.22
2017-05-22T04:37:13.195Z,45.32
2017-05-22T04:38:14.617Z,45.61
2017-05-22T04:39:16.034Z,45.32
2017-05-22T04:40:17.458Z,45.03
2017-05-22T04:41:18.877Z,44.65
2017-05-22T04:42:20.302Z,44.19
2017-05-22T04:43:23.057Z,43.80
2017-05-22T04:44:23.775Z,43.68
2017-05-22T04:45:25.201Z,43.78
2017-05-22T04:46:26.618Z,43.51
2017-05-22T04:47:28.037Z,43.23
2017-05-22T04:48:29.455Z,43.99
2017-05-22T04:49:30.876Z,43.71
2017-05-22T04:50:32.292Z,43.59
2017-05-22T04:51:33.726Z,43.71
2017-05-22T04:52:35.147Z,43.71
2017-05-22T04:53:36.566Z,43.03
2017-05-22T04:54:37.982Z,42.84
2017-05-22T04:55:39.403Z,42.57
2017-05-22T04:56:40.825Z,42.67
2017-05-22T04:57:42.247Z,42.76
2017-05-22T04:58:43.666Z,42.74
2017-05-22T04:59:45.089Z,42.96
2017-05-22T05:00:46.507Z,42.74
2017-05-22T05:01:47.930Z,43.03
2017-05-22T05:02:49.358Z,44.86
2017-05-22T05:03:50.767Z,44.86
2017-05-22T05:04:52.187Z,44.38
2017-05-22T05:05:53.608Z,43.88
2017-05-22T05:06:55.029Z,44.76
2017-05-22T05:07:56.445Z,44.74
2017-05-22T05:08:57.863Z,44.74
2017-05-22T05:09:59.285Z,44.93
2017-05-22T05:11:00.704Z,44.74
2017-05-22T05:12:02.127Z,44.74
2017-05-22T05:13:03.548Z,44.19
2017-05-22T05:14:04.975Z,44.28
2017-05-22T05:15:06.395Z,44.93
2017-05-22T05:16:07.824Z,45.25
2017-05-22T05:17:09.239Z,44.76
2017-05-22T05:18:10.652Z,44.86
2017-05-22T05:19:12.074Z,44.76
2017-05-22T05:20:13.496Z,44.76
2017-05-22T05:21:14.918Z,44.76
2017-05-22T05:22:16.340Z,45.15
2017-05-22T05:23:17.758Z,44.96
2017-05-22T05:24:19.182Z,44.96
2017-05-22T05:25:20.598Z,46.59
2017-05-22T05:26:22.019Z,46.50
2017-05-22T05:27:23.440Z,46.11
2017-05-22T05:28:24.863Z,45.34
2017-05-22T05:29:26.282Z,46.57
2017-05-22T05:30:27.698Z,46.38
2017-05-22T05:31:29.117Z,47.44
2017-05-22T05:32:30.534Z,47.72
2017-05-22T05:33:31.952Z,48.69
2017-05-22T05:34:33.374Z,47.53
2017-05-22T05:35:34.796Z,47.05
2017-05-22T05:36:36.215Z,47.05
2017-05-22T05:37:37.632Z,46.67
2017-05-22T05:38:39.049Z,46.57
2017-05-22T05:39:40.466Z,47.27
2017-05-22T05:40:41.892Z,47.56
2017-05-22T05:41:43.313Z,46.28
2017-05-22T05:42:44.742Z,46.28
2017-05-22T05:43:46.167Z,45.70
2017-05-22T05:44:47.585Z,46.09
2017-05-22T05:45:49.009Z,45.34
2017-05-22T05:46:50.426Z,46.50
2017-05-22T05:47:51.844Z,46.21
2017-05-22T05:48:53.267Z,48.33
2017-05-22T05:49:54.689Z,47.27
2017-05-22T05:50:56.103Z,46.98
2017-05-22T05:51:57.521Z,48.13
2017-05-22T05:52:58.941Z,48.03
2017-05-22T05:54:00.363Z,47.46
2017-05-22T05:55:01.787Z,47.56
2017-05-22T05:56:03.208Z,47.08
2017-05-22T05:57:04.627Z,47.46
2017-05-22T05:58:06.051Z,47.56
2017-05-22T05:59:07.470Z,47.75
2017-05-22T06:00:08.889Z,47.46
2017-05-22T06:01:10.308Z,47.36
2017-05-22T06:02:11.728Z,47.17
2017-05-22T06:03:13.151Z,47.08
2017-05-22T06:04:14.570Z,47.08
2017-05-22T06:05:15.985Z,47.08
2017-05-22T06:06:17.401Z,46.69
2017-05-22T06:07:18.822Z,46.59
2017-05-22T06:08:20.241Z,46.78
2017-05-22T06:09:21.663Z,46.69
2017-05-22T06:10:23.082Z,46.59
2017-05-22T06:11:24.517Z,46.78
2017-05-22T06:12:25.937Z,46.71
2017-05-22T06:13:27.353Z,46.59
2017-05-22T06:14:28.770Z,46.42
2017-05-22T06:15:30.189Z,46.52
2017-05-22T06:16:31.611Z,46.50
2017-05-22T06:17:33.031Z,46.52
2017-05-22T06:18:34.451Z,46.33
2017-05-22T06:19:35.869Z,46.14
2017-05-22T06:20:37.288Z,46.14
2017-05-22T06:21:38.708Z,45.65
2017-05-22T06:22:40.128Z,45.84
2017-05-22T06:23:41.548Z,45.36
2017-05-22T06:24:42.971Z,45.56
2017-05-22T06:25:44.389Z,45.36
2017-05-22T06:26:45.806Z,45.36
2017-05-22T06:27:47.233Z,45.36
2017-05-22T06:28:48.643Z,45.17
2017-05-22T06:29:50.064Z,45.07
2017-05-22T06:30:51.485Z,44.69
2017-05-22T06:31:52.909Z,45.07
2017-05-22T06:32:54.329Z,44.79
2017-05-22T06:33:55.750Z,44.89
2017-05-22T06:34:57.167Z,44.89
2017-05-22T06:35:58.588Z,44.79
2017-05-22T06:37:00.007Z,44.59
2017-05-22T06:38:01.425Z,44.79
2017-05-22T06:39:02.845Z,44.40
2017-05-22T06:40:04.264Z,44.69
2017-05-22T06:41:05.683Z,44.89
2017-05-22T06:42:07.102Z,44.59
2017-05-22T06:43:08.524Z,44.89
2017-05-22T06:44:09.942Z,44.21
2017-05-22T06:45:11.362Z,44.69
2017-05-22T06:46:12.785Z,44.02
2017-05-22T06:47:14.224Z,44.89
2017-05-22T06:48:15.624Z,44.31
2017-05-22T06:49:17.043Z,44.32
2017-05-22T06:50:18.464Z,44.02
2017-05-22T06:51:19.878Z,44.11
2017-05-22T06:52:21.299Z,44.32
2017-05-22T06:53:22.719Z,44.11
2017-05-22T06:54:24.141Z,44.81
2017-05-22T06:55:25.561Z,44.21
2017-05-22T06:56:26.983Z,44.32
2017-05-22T06:57:28.400Z,44.90
2017-05-22T06:58:29.818Z,44.21
2017-05-22T06:59:31.244Z,44.81
2017-05-22T07:00:32.666Z,44.90
2017-05-22T07:01:34.084Z,43.85
2017-05-22T07:02:35.503Z,43.94
2017-05-22T07:03:36.925Z,44.21
2017-05-22T07:04:38.344Z,43.85
2017-05-22T07:05:39.760Z,44.13
2017-05-22T07:06:41.184Z,43.94
2017-05-22T07:07:42.604Z,44.42
2017-05-22T07:08:44.045Z,44.23
2017-05-22T07:09:45.466Z,43.85
2017-05-22T07:10:46.886Z,43.94
2017-05-22T07:11:48.303Z,43.85
2017-05-22T07:12:49.728Z,43.82
2017-05-22T07:13:51.144Z,44.04
2017-05-22T07:14:52.564Z,44.04
2017-05-22T07:15:54.054Z,43.85
2017-05-22T07:16:55.471Z,43.75
2017-05-22T07:17:56.890Z,43.46
2017-05-22T07:18:58.310Z,43.65
2017-05-22T07:19:59.731Z,43.55
2017-05-22T07:21:01.150Z,43.46
2017-05-22T07:22:02.569Z,43.65
2017-05-22T07:23:03.990Z,43.55
2017-05-22T07:24:05.410Z,43.46
2017-05-22T07:25:06.827Z,43.46
2017-05-22T07:26:08.247Z,43.65
2017-05-22T07:27:09.665Z,43.75
2017-05-22T07:28:11.094Z,43.55
2017-05-22T07:29:12.516Z,43.65
2017-05-22T07:30:13.938Z,43.65
2017-05-22T07:31:15.356Z,43.37
2017-05-22T07:32:16.778Z,43.85
2017-05-22T07:33:18.196Z,43.46
2017-05-22T07:34:19.617Z,43.94
2017-05-22T07:35:21.039Z,43.17
2017-05-22T07:36:22.463Z,43.17
2017-05-22T07:37:23.887Z,43.07
2017-05-22T07:38:25.314Z,43.17
2017-05-22T07:39:26.732Z,43.27
2017-05-22T07:40:28.152Z,43.27
2017-05-22T07:41:29.569Z,43.17
2017-05-22T07:42:30.990Z,42.97
2017-05-22T07:43:32.410Z,43.17
2017-05-22T07:44:33.832Z,43.27
2017-05-22T07:45:35.252Z,43.00
2017-05-22T07:46:36.670Z,43.10
2017-05-22T07:47:38.090Z,42.97
2017-05-22T07:48:39.511Z,42.88
2017-05-22T07:49:40.933Z,42.71
2017-05-22T07:50:42.355Z,42.80
2017-05-22T07:51:43.779Z,42.69
2017-05-22T07:52:45.198Z,42.80
2017-05-22T07:53:46.617Z,42.88
2017-05-22T07:54:48.037Z,42.61
2017-05-22T07:55:49.454Z,43.00
2017-05-22T07:56:50.880Z,42.80
2017-05-22T07:57:52.302Z,42.71
2017-05-22T07:58:53.725Z,42.71
2017-05-22T07:59:55.147Z,42.61
2017-05-22T08:00:56.567Z,42.61
2017-05-22T08:01:57.987Z,42.52
2017-05-22T08:02:59.408Z,42.52
2017-05-22T08:04:00.828Z,42.80
2017-05-22T08:05:02.251Z,42.52
2017-05-22T08:06:03.672Z,42.52
2017-05-22T08:07:05.090Z,42.52
2017-05-22T08:08:06.509Z,42.71
2017-05-22T08:09:07.927Z,42.61
2017-05-22T08:10:09.353Z,42.71
2017-05-22T08:11:10.771Z,42.71
2017-05-22T08:12:12.194Z,42.71
2017-05-22T08:13:13.623Z,42.90
2017-05-22T08:14:15.041Z,42.90
2017-05-22T08:15:16.461Z,42.52
2017-05-22T08:16:17.883Z,43.00
2017-05-22T08:17:19.304Z,42.61
2017-05-22T08:18:20.727Z,42.52
2017-05-22T08:19:22.150Z,42.52
2017-05-22T08:20:23.573Z,42.80
2017-05-22T08:21:24.994Z,42.52
2017-05-22T08:22:26.413Z,42.71
2017-05-22T08:23:27.832Z,42.52
2017-05-22T08:24:29.251Z,42.61
2017-05-22T08:25:30.674Z,42.71
2017-05-22T08:26:32.095Z,42.61
2017-05-22T08:27:33.519Z,42.52
2017-05-22T08:28:34.944Z,42.52
2017-05-22T08:29:36.385Z,42.23
2017-05-22T08:30:37.793Z,42.52
2017-05-22T08:31:39.214Z,42.52
2017-05-22T08:32:40.635Z,42.42
2017-05-22T08:33:42.059Z,42.52
2017-05-22T08:34:43.482Z,42.35
2017-05-22T08:35:44.902Z,42.61
2017-05-22T08:36:46.322Z,42.54
2017-05-22T08:37:47.744Z,42.44
2017-05-22T08:38:49.165Z,42.42
2017-05-22T08:39:50.586Z,42.42
2017-05-22T08:40:52.011Z,42.44
2017-05-22T08:41:53.437Z,42.44
2017-05-22T08:42:54.858Z,42.23
2017-05-22T08:43:56.278Z,42.35
2017-05-22T08:44:57.696Z,42.35
2017-05-22T08:45:59.117Z,42.25
2017-05-22T08:47:00.556Z,42.35
2017-05-22T08:48:01.977Z,42.32
2017-05-22T08:49:03.401Z,42.15
2017-05-22T08:50:04.820Z,42.05
2017-05-22T08:51:06.237Z,42.23
2017-05-22T08:52:07.663Z,42.25
2017-05-22T08:53:09.085Z,42.35
2017-05-22T08:54:10.506Z,42.32
2017-05-22T08:55:11.926Z,42.25
2017-05-22T08:56:13.353Z,42.15
2017-05-22T08:57:14.773Z,42.23
2017-05-22T08:58:16.192Z,42.05
2017-05-22T08:59:17.614Z,42.15
2017-05-22T09:00:19.035Z,42.44
2017-05-22T09:01:20.455Z,42.13
2017-05-22T09:02:21.880Z,42.15
2017-05-22T09:03:23.301Z,42.25
2017-05-22T09:04:24.720Z,42.25
2017-05-22T09:05:26.136Z,42.54
2017-05-22T09:06:27.557Z,42.23
2017-05-22T09:07:28.977Z,42.35
2017-05-22T09:08:30.399Z,42.35
2017-05-22T09:09:31.823Z,42.25
2017-05-22T09:10:33.244Z,42.25
2017-05-22T09:11:34.665Z,42.35
2017-05-22T09:12:36.084Z,42.13
2017-05-22T09:13:37.503Z,42.25
2017-05-22T09:14:38.924Z,42.15
2017-05-22T09:15:40.351Z,42.15
2017-05-22T09:16:41.788Z,42.25
2017-05-22T09:17:43.220Z,42.35
2017-05-22T09:18:44.642Z,42.35
2017-05-22T09:19:46.059Z,42.25
2017-05-22T09:20:47.482Z,42.25
2017-05-22T09:21:48.902Z,42.15
2017-05-22T09:22:50.326Z,42.25
2017-05-22T09:23:51.748Z,42.15
2017-05-22T09:24:53.172Z,42.15
2017-05-22T09:25:54.599Z,42.15
2017-05-22T09:26:56.016Z,42.25
2017-05-22T09:27:57.438Z,42.35
2017-05-22T09:28:58.857Z,42.15
2017-05-22T09:30:00.281Z,42.44
2017-05-22T09:31:01.705Z,42.05
2017-05-22T09:32:03.131Z,42.25
2017-05-22T09:33:04.550Z,42.05
2017-05-22T09:34:05.970Z,42.05
2017-05-22T09:35:07.387Z,41.96
2017-05-22T09:36:08.810Z,42.25
2017-05-22T09:37:10.227Z,42.25
2017-05-22T09:38:11.653Z,42.15
2017-05-22T09:39:13.078Z,41.96
2017-05-22T09:40:14.496Z,41.96
2017-05-22T09:41:15.914Z,42.05
2017-05-22T09:42:17.334Z,42.25
2017-05-22T09:43:18.751Z,42.54
2017-05-22T09:44:20.176Z,42.05
2017-05-22T09:45:21.599Z,42.15
2017-05-22T09:46:23.023Z,42.15
2017-05-22T09:47:24.442Z,42.25
2017-05-22T09:48:25.864Z,42.25
2017-05-22T09:49:27.285Z,42.15
2017-05-22T09:50:28.707Z,42.44
2017-05-22T09:51:30.125Z,42.54
2017-05-22T09:52:31.549Z,42.44
2017-05-22T09:53:32.975Z,42.54
2017-05-22T09:54:34.393Z,42.15
2017-05-22T09:55:35.812Z,42.25
2017-05-22T09:56:37.237Z,42.25
2017-05-22T09:57:38.663Z,42.44
2017-05-22T09:58:40.084Z,42.35
2017-05-22T09:59:41.505Z,42.35
2017-05-22T10:00:42.930Z,42.05
2017-05-22T10:01:44.352Z,42.15
2017-05-22T10:02:45.772Z,41.86
2017-05-22T10:03:47.194Z,41.77
2017-05-22T10:04:48.619Z,41.77
2017-05-22T10:05:50.041Z,42.15
2017-05-22T10:06:51.464Z,41.88
2017-05-22T10:07:52.891Z,41.96
2017-05-22T10:08:54.310Z,41.98
2017-05-22T10:09:55.730Z,41.78
2017-05-22T10:10:57.151Z,41.98
2017-05-22T10:11:58.572Z,41.88
2017-05-22T10:12:59.996Z,41.78
2017-05-22T10:14:01.475Z,41.78
2017-05-22T10:15:02.844Z,41.98
2017-05-22T10:16:04.265Z,41.88
2017-05-22T10:17:05.686Z,41.69
2017-05-22T10:18:07.107Z,41.78
2017-05-22T10:19:08.530Z,41.60
2017-05-22T10:20:09.951Z,41.50
2017-05-22T10:21:11.372Z,41.40
2017-05-22T10:22:12.797Z,41.78
2017-05-22T10:23:14.216Z,41.69
2017-05-22T10:24:15.635Z,41.98
2017-05-22T10:25:17.054Z,41.77
2017-05-22T10:26:18.477Z,42.27
2017-05-22T10:27:19.901Z,42.44
2017-05-22T10:28:21.322Z,42.35
2017-05-22T10:29:22.741Z,42.54
2017-05-22T10:30:24.165Z,42.63
2017-05-22T10:31:25.586Z,42.83
2017-05-22T10:32:27.008Z,42.54
2017-05-22T10:33:28.430Z,42.56
2017-05-22T10:34:29.853Z,42.18
2017-05-22T10:35:31.277Z,42.08
2017-05-22T10:36:32.707Z,42.18
2017-05-22T10:37:34.126Z,42.27
2017-05-22T10:38:35.552Z,42.18
2017-05-22T10:39:36.971Z,42.36
2017-05-22T10:40:38.392Z,42.18
2017-05-22T10:41:39.816Z,42.05
2017-05-22T10:42:41.240Z,42.27
2017-05-22T10:43:42.661Z,42.18
2017-05-22T10:44:44.082Z,41.98
2017-05-22T10:45:45.501Z,41.78
2017-05-22T10:46:46.925Z,42.08
2017-05-22T10:47:48.349Z,41.69
2017-05-22T10:48:49.771Z,41.50
2017-05-22T10:49:51.197Z,41.60
2017-05-22T10:50:52.621Z,42.18
2017-05-22T10:51:54.041Z,41.78
2017-05-22T10:52:55.461Z,41.52
2017-05-22T10:53:56.882Z,41.23
2017-05-22T10:54:58.304Z,41.52
2017-05-22T10:55:59.726Z,41.33
2017-05-22T10:57:01.149Z,41.71
2017-05-22T10:58:02.581Z,41.42
2017-05-22T10:59:03.993Z,41.33
2017-05-22T11:00:05.415Z,41.42
2017-05-22T11:01:06.835Z,41.81
2017-05-22T11:02:08.256Z,41.81
2017-05-22T11:03:09.680Z,41.61
2017-05-22T11:04:11.108Z,41.13
2017-05-22T11:05:12.533Z,41.42
2017-05-22T11:06:13.952Z,41.23
2017-05-22T11:07:15.375Z,41.71
2017-05-22T11:08:16.803Z,41.61
2017-05-22T11:09:18.222Z,41.52
2017-05-22T11:10:19.646Z,41.81
2017-05-22T11:11:21.071Z,41.23
2017-05-22T11:12:22.494Z,41.13
2017-05-22T11:13:23.918Z,41.03
2017-05-22T11:14:25.336Z,41.23
2017-05-22T11:15:26.758Z,41.61
2017-05-22T11:16:28.180Z,41.52
2017-05-22T11:17:29.609Z,41.71
2017-05-22T11:18:31.031Z,41.81
2017-05-22T11:19:32.457Z,41.71
2017-05-22T11:20:33.877Z,41.81
2017-05-22T11:21:35.587Z,41.91
2017-05-22T11:22:36.929Z,41.78
2017-05-22T11:23:38.359Z,41.98
2017-05-22T11:24:39.986Z,41.81
2017-05-22T11:25:41.585Z,41.71
2017-05-22T11:26:43.011Z,41.91
2017-05-22T11:27:44.437Z,41.23
2017-05-22T11:28:45.861Z,41.52
2017-05-22T11:29:47.281Z,41.71
2017-05-22T11:30:49.198Z,41.33
2017-05-22T11:31:50.617Z,41.71
2017-05-22T11:32:52.048Z,41.42
2017-05-22T11:33:53.477Z,41.71
2017-05-22T11:34:54.901Z,41.33
2017-05-22T11:35:56.324Z,41.33
2017-05-22T11:36:57.747Z,41.52
2017-05-22T11:37:59.171Z,41.33
2017-05-22T11:39:00.590Z,41.23
2017-05-22T11:40:02.013Z,41.33
2017-05-22T11:41:03.438Z,41.13
2017-05-22T11:42:04.860Z,40.96
2017-05-22T11:43:06.280Z,40.94
2017-05-22T11:44:07.702Z,41.03
2017-05-22T11:45:09.127Z,41.23
2017-05-22T11:46:10.554Z,41.13
2017-05-22T11:47:11.977Z,41.13
2017-05-22T11:48:13.403Z,41.33
2017-05-22T11:49:14.825Z,41.23
2017-05-22T11:50:16.244Z,41.23
2017-05-22T11:51:17.668Z,41.33
2017-05-22T11:52:19.094Z,41.13
2017-05-22T11:53:20.515Z,41.13
2017-05-22T11:54:21.940Z,40.94
2017-05-22T11:55:23.365Z,41.13
2017-05-22T11:56:24.785Z,41.33
2017-05-22T11:57:26.209Z,41.33
2017-05-22T11:58:27.634Z,41.33
2017-05-22T11:59:29.057Z,41.13
2017-05-22T12:00:30.479Z,41.03
2017-05-22T12:01:31.904Z,41.13
2017-05-22T12:02:33.327Z,41.03
2017-05-22T12:03:34.751Z,41.44
2017-05-22T12:04:36.176Z,41.13
2017-05-22T12:05:37.594Z,41.33
2017-05-22T12:06:39.014Z,41.23
2017-05-22T12:07:40.441Z,41.13
2017-05-22T12:08:41.864Z,41.03
2017-05-22T12:09:43.289Z,41.23
2017-05-22T12:10:44.718Z,41.03
2017-05-22T12:11:46.136Z,41.03
2017-05-22T12:12:47.562Z,41.42
2017-05-22T12:13:48.984Z,41.71
2017-05-22T12:14:50.408Z,41.42
2017-05-22T12:15:51.827Z,41.73
2017-05-22T12:16:53.253Z,41.25
2017-05-22T12:17:54.678Z,41.33
2017-05-22T12:18:56.102Z,41.73
2017-05-22T12:19:57.528Z,41.71
2017-05-22T12:20:58.960Z,41.23
2017-05-22T12:22:00.387Z,41.35
2017-05-22T12:23:01.819Z,41.71
2017-05-22T12:24:03.255Z,41.35
2017-05-22T12:25:04.679Z,41.33
2017-05-22T12:26:06.099Z,41.52
2017-05-22T12:27:07.525Z,41.35
2017-05-22T12:28:08.949Z,41.25
2017-05-22T12:29:10.366Z,41.15
2017-05-22T12:30:11.793Z,41.44
2017-05-22T12:31:13.219Z,41.63
2017-05-22T12:32:14.639Z,41.25
2017-05-22T12:33:16.060Z,41.05
2017-05-22T12:34:17.482Z,41.35
2017-05-22T12:35:18.904Z,41.25
2017-05-22T12:36:20.330Z,41.25
2017-05-22T12:37:21.758Z,41.35
2017-05-22T12:38:23.182Z,41.54
2017-05-22T12:39:24.614Z,41.54
2017-05-22T12:40:26.035Z,41.54
2017-05-22T12:41:27.459Z,41.73
2017-05-22T12:42:28.884Z,41.83
2017-05-22T12:43:30.307Z,41.25
2017-05-22T12:44:31.742Z,41.63
2017-05-22T12:45:33.167Z,41.15
2017-05-22T12:46:34.591Z,41.63
2017-05-22T12:47:36.007Z,41.63
2017-05-22T12:48:37.433Z,41.83
2017-05-22T12:49:38.853Z,42.02
2017-05-22T12:50:40.278Z,41.61
2017-05-22T12:51:41.703Z,41.44
2017-05-22T12:52:43.128Z,41.44
2017-05-22T12:53:44.547Z,41.44
2017-05-22T12:54:45.971Z,41.93
2017-05-22T12:55:47.394Z,41.83
2017-05-22T12:56:48.817Z,41.73
2017-05-22T12:57:50.242Z,41.15
2017-05-22T12:58:51.667Z,41.54
2017-05-22T12:59:53.092Z,41.33
2017-05-22T13:00:54.512Z,41.54
2017-05-22T13:01:55.935Z,41.73
2017-05-22T13:02:57.358Z,41.44
2017-05-22T13:03:58.777Z,41.73
2017-05-22T13:05:00.209Z,41.73
2017-05-22T13:06:01.629Z,41.83
2017-05-22T13:07:03.054Z,41.44
2017-05-22T13:08:04.477Z,41.93
2017-05-22T13:09:05.896Z,41.83
2017-05-22T13:10:07.317Z,41.54
2017-05-22T13:11:08.741Z,41.63